METAR Data
IDs: Format: Raw Decoded Include TAF

Data at: 0814 UTC 02 Aug 2021

Region: TOP
KATL 020752Z COR 32005KT 10SM FEW040 BKN250 23/20 A3000 RMK AO2 SLP149 T02330200

KBOS 020754Z 19005KT 10SM FEW090 BKN150 BKN220 19/14 A2981 RMK AO2 SLP095 T01890139 $

KBWI 020754Z 30004KT 10SM CLR 17/16 A2991 RMK AO2 SLP127 T01720156

KCLE 020751Z 02009KT 10SM SCT027 BKN038 BKN060 19/13 A3004 RMK AO2 SLP184 T01890128

KCLT 020752Z 32004KT 8SM CLR 21/17 A2996 RMK AO2 SLP138 T02110172

KCVG 020752Z 35004KT 8SM CLR 16/12 A3008 RMK AO2 SLP180 T01610122

KDCA 020752Z 32007KT 10SM FEW250 19/16 A2993 RMK AO2 SLP135 T01940156

KDEN 020753Z 18007KT 7SM SCT220 16/12 A3032 RMK AO2 SLP197 T01560122 $

KDFW 020753Z 36006KT 9SM -RA SCT048 BKN095 OVC110 25/23 A3002 RMK AO2 LTG DSNT SE RAB18 SLP154 OCNL LTGIC DSNT SE CB DSNT SE MOV E P0000 T02500233 $

KDTW 020753Z 32004KT 9SM CLR 14/12 A3010 RMK AO2 SLP191 T01440117 $

KEWR 020751Z 32009KT 10SM FEW014 18/15 A2985 RMK AO2 SLP107 T01830150 $

KFLL 020753Z 00000KT 10SM FEW025 FEW250 27/25 A3005

KIAD 020752Z 14003KT 10SM CLR 17/14 A2993 RMK AO2 SLP135 T01670144 $

KIAH 020753Z 24006KT 10SM SCT065 SCT250 28/24 A3000 RMK AO2 SLP158 T02830239

KJFK 020751Z 31012KT 10SM BKN016 BKN040 BKN170 20/18 A2984 RMK AO2 SLP106 T02000178

KLAS 020756Z 27006KT 10SM CLR 32/15 A3003 RMK AO2 SLP138 T03170150 403830278

KLAX 020753Z 19003KT 10SM CLR 17/15 A3002 RMK AO2 SLP163 T01720150 402330167

KLGA 020751Z 31017KT 10SM FEW015 SCT025 SCT130 19/14 A2984 RMK AO2 SLP103 T01940144 $

KMCO 020753Z 17006KT 10SM SCT025 BKN100 BKN250 26/25 A3001 RMK AO2 SLP161 T02610250

KMDW 020753Z 31005KT 10SM FEW025 FEW034 18/13 A3013 RMK AO2 SLP197 T01780133

KMEM 020754Z 04005KT 10SM BKN100 OVC160 24/21 A3004 RMK AO2 SLP167 T02440206

KMIA 020753Z 00000KT 10SM FEW027 BKN120 BKN250 28/25 A3005 RMK AO2 SLP175 T02780250 $

KMSP 020753Z 25003KT 10SM CLR 18/11 A3019 RMK AO2 SLP218 T01780111

KORD 020751Z 29003KT 10SM CLR 17/13 A3014 RMK AO2 SLP203 T01670133

KPDX 020753Z 35007KT 10SM SCT250 18/13 A3008 RMK AO2 SLP184 T01830133 403170172

KPHL 020754Z 34003KT 10SM FEW005 17/15 A2989 RMK AO2 SLP122 T01670150 $

KPHX 020751Z 12006KT 10SM FEW130 FEW250 34/16 A2993 RMK AO2 SLP111 T03440156

KPIT 020751Z 30004KT 10SM FEW025 FEW060 14/13 A3002 RMK AO2 SLP166 T01390128 $

KSAN 020751Z 34004KT 10SM FEW008 21/16 A3003 RMK AO2 SLP169 T02060161 402670178 $

KSEA 020753Z 26003KT 10SM BKN250 18/14 A3013 RMK AO2 SLP206 T01780139 402720167

KSFO 020756Z 25008KT 10SM FEW014 17/12 A3009 RMK AO2 SLP188 T01670117 402280144 $

KSLC 020754Z 13006KT 10SM SCT120 22/15 A3023 RMK AO2 SLP180 CB DSNT N AND NW T02170150

KSTL 020751Z 00000KT 9SM CLR 21/17 A3011 RMK AO2 SLP185 T02110167

KTPA 020753Z 21005KT 10SM CLR 29/25 A3002 RMK AO2 SLP165 T02890250